Melcher Dallas, Iowa
Current Conditions -  °F | °C
As of 12:55 PM on Tuesday 27 Jan 2015 (Local Time) from KOXV Reporting Station
Few Clouds Few Clouds  
Wind Chill: 40°   Ceiling: Unl
Heat Index: 43°   Visibility: 10mi
Dew Point: 30°   Wind: 5mph
Humidity: 61%   Direction: 140°SE
Pressure: 30.14"   Gusts: 15mph
Location:  41.2269°N, 93.1611°W
Report Text: KOXV 271855Z AUTO 14004G13KT 10SM FEW023 06/M01 A3014 RMK AO2
Loading
Personal Weather Stations






























Interactive Weather Map New forecast layout! Learn more

10-Day Weather Forecast

Advertisements
Track Severe Weather on mobile